首页
METAR-TAF:

METAR-TAF

机场 :

諾福克國際機場

諾福克, 弗吉尼亚州, 美国

纬度: 36-54-13N, 经度: 076-11-31W, 海拔: 8米

当前天气观测

该预报发布于1小时和27分钟前的18:51 UTC
风速19节,风向,有时为27节阵风
温度 1°C
湿度 55%
气压 1032 hPa
能見度: 16.1公里
多云层高于3100英尺

METAR: KORF 211851Z 36019G27KT 10SM BKN031 01/M07 A3048 RMK AO2 PK WND 02028/1829 SLP322 T00111072

时间: 15:18 (20:18 UTC)

预报

该预报发布于2小时和58分钟前的17:20 UTC
预报有效从21日的 18点(UTC)到 22日的 18点(UTC)
风速18节,风向,有时为27节阵风
能見度: 10公里
少量云层高于15000英尺
从 21日的 2100点(UTC)
风速11节,风向
能見度: 10公里
天空无云
从 22日的 0100点(UTC)
风速5节,风向多变
能見度: 10公里
天空无云

TAF: KORF 211720Z 2118/2218 01018G27KT P6SM FEW150 FM212100 01011KT P6SM SKC FM220100 VRB05KT P6SM SKC

超过4000个机场的气象观测和天气预报(METAR&TAF报告)。

可查询的气象台以黄色和红色小点在地图上表示。

将鼠标移到小点上方,可查看气象台名称。

然后点击查看天气观测和预报。

如需切换地图:点击带黑十字的绿色按钮放大地图;点击带横线的绿色按钮缩小地图;或者点击绿色箭头查看邻近地区的地图。


METAR-TAF: